Time;durP1;ratioP1;P1;durP2;ratioP2;P2;SDS_P1;SDS_P2;PMS_P1;PMS_P2;Temp;Humidity;BMP_temperature;BMP_pressure;BME280_temperature;BME280_humidity;BME280_pressure;Samples;Min_cycle;Max_cycle;Signal;HPM_P1;HPM_P2
2023/05/03 00:01:19;;;;;;;9.10;4.53;;;;;;;4.40;100.00;102864.81;4973384;28;20057;-43
2023/05/03 00:03:45;;;;;;;5.80;4.20;;;;;;;4.78;100.00;102936.19;4973689;28;20041;-43
2023/05/03 00:06:14;;;;;;;8.02;4.82;;;;;;;4.74;100.00;102919.56;4973727;28;20041;-43
2023/05/03 00:08:40;;;;;;;7.20;4.47;;;;;;;4.32;100.00;102854.16;4957712;28;20042;-43
2023/05/03 00:11:07;;;;;;;7.75;4.20;;;;;;;4.50;100.00;102904.19;4968948;28;20039;-43
2023/05/03 00:13:32;;;;;;;7.95;5.25;;;;;;;4.65;100.00;102932.38;4953892;28;20058;-42
2023/05/03 00:15:57;;;;;;;9.07;4.95;;;;;;;4.67;100.00;102928.06;4952667;29;20090;-42
2023/05/03 00:18:23;;;;;;;8.02;4.75;;;;;;;4.65;100.00;102931.47;4954120;29;20047;-42
2023/05/03 00:20:49;;;;;;;5.30;4.50;;;;;;;4.64;100.00;102929.75;4954009;29;20027;-41
2023/05/03 00:23:14;;;;;;;10.93;4.55;;;;;;;4.26;100.00;102860.97;4953126;28;20451;-42
2023/05/03 00:25:40;;;;;;;6.55;4.72;;;;;;;4.54;100.00;102913.84;4973442;28;20030;-41
2023/05/03 00:28:05;;;;;;;7.07;4.70;;;;;;;4.59;100.00;102916.56;4973230;28;20039;-42
2023/05/03 00:30:30;;;;;;;6.25;4.90;;;;;;;4.59;100.00;102919.19;4973311;28;20030;-43
2023/05/03 00:32:56;;;;;;;5.68;4.80;;;;;;;4.48;100.00;102905.88;4973342;28;20031;-42
2023/05/03 00:35:21;;;;;;;9.73;5.35;;;;;;;4.46;100.00;102914.50;4973346;28;20467;-42
2023/05/03 00:37:47;;;;;;;8.35;4.88;;;;;;;4.42;100.00;102912.66;4973365;28;20074;-42
2023/05/03 00:40:15;;;;;;;6.30;5.22;;;;;;;4.37;100.00;102925.59;4973467;28;20074;-42
2023/05/03 00:42:40;;;;;;;8.18;5.47;;;;;;;3.98;100.00;102857.66;4972738;28;20122;-42
2023/05/03 00:45:06;;;;;;;7.03;5.20;;;;;;;4.32;100.00;102919.34;4971894;28;20130;-43
2023/05/03 00:47:32;;;;;;;12.07;5.43;;;;;;;4.04;100.00;102885.59;4972997;28;20038;-42
2023/05/03 00:49:58;;;;;;;7.78;5.45;;;;;;;4.06;100.00;102894.31;4972061;28;20050;-42
2023/05/03 00:52:25;;;;;;;10.20;5.70;;;;;;;4.28;100.00;102938.38;4973037;28;20078;-42
2023/05/03 00:54:51;;;;;;;8.40;5.70;;;;;;;4.23;100.00;102932.13;4973016;28;20031;-42
2023/05/03 00:57:16;;;;;;;8.57;5.45;;;;;;;4.06;100.00;102909.09;4987343;28;20043;-43
2023/05/03 00:59:42;;;;;;;8.60;5.22;;;;;;;4.20;100.00;102939.91;4971526;28;20086;-42
2023/05/03 01:02:07;;;;;;;8.73;5.72;;;;;;;4.19;100.00;102934.63;4972894;28;20130;-41
2023/05/03 01:04:32;;;;;;;8.07;5.70;;;;;;;4.19;100.00;102937.25;4972098;28;20066;-42
2023/05/03 01:07:22;;;;;;;11.18;6.47;;;;;;;4.17;100.00;102933.72;4972956;28;20410;-43
2023/05/03 01:09:53;;;;;;;8.48;6.55;;;;;;;3.72;100.00;102869.09;4973276;28;20093;-43
2023/05/03 01:12:37;;;;;;;6.00;5.20;;;;;;;4.08;100.00;102929.16;4976401;28;20486;-43
2023/05/03 01:15:35;;;;;;;8.68;6.25;;;;;;;4.05;100.00;102933.38;4976419;28;20482;-43
2023/05/03 01:18:07;;;;;;;9.32;6.07;;;;;;;3.96;100.00;102914.06;4953568;28;20047;-42
2023/05/03 01:20:33;;;;;;;9.73;6.50;;;;;;;4.02;100.00;102931.59;4958864;28;20030;-42
2023/05/03 01:22:58;;;;;;;8.75;6.32;;;;;;;3.96;100.00;102910.56;4975198;28;20042;-43
2023/05/03 01:25:25;;;;;;;9.05;6.18;;;;;;;3.97;100.00;102917.50;4976505;28;20502;-42
2023/05/03 01:27:51;;;;;;;12.25;6.60;;;;;;;3.97;100.00;102920.13;4976166;28;20037;-42
2023/05/03 01:30:16;;;;;;;9.85;6.90;;;;;;;3.73;100.00;102891.69;4976281;28;20417;-43
2023/05/03 01:33:18;;;;;;;9.65;7.18;;;;;;;3.91;100.00;102928.66;4976185;28;20043;-43
2023/05/03 01:35:52;;;;;;;10.43;7.50;;;;;;;3.50;100.00;102851.09;4976234;28;20445;-43
2023/05/03 01:38:17;;;;;;;11.30;7.57;;;;;;;3.80;100.00;102893.63;4957930;28;20458;-42
2023/05/03 01:40:52;;;;;;;12.40;7.35;;;;;;;3.86;100.00;102900.72;4975857;28;20035;-42
2023/05/03 01:43:18;;;;;;;8.32;7.25;;;;;;;3.40;100.00;102821.31;4974558;28;20398;-44
2023/05/03 01:45:43;;;;;;;8.90;7.05;;;;;;;3.64;100.00;102885.34;4974835;28;20035;-43
2023/05/03 01:48:15;;;;;;;9.60;7.05;;;;;;;3.77;100.00;102892.63;4974914;28;20394;-43
2023/05/03 01:50:40;;;;;;;;;;;;;;;3.73;100.00;102891.69;4959287;28;20039;-43
2023/05/03 01:53:05;;;;;;;10.10;7.22;;;;;;;3.71;100.00;102882.03;4975914;28;19925;-42
2023/05/03 01:55:31;;;;;;;11.23;7.22;;;;;;;3.68;100.00;102875.03;4974797;28;20613;-41
2023/05/03 01:57:56;;;;;;;11.45;7.60;;;;;;;3.51;100.00;102846.75;4975404;28;20043;-42
2023/05/03 02:00:21;;;;;;;10.63;7.45;;;;;;;3.61;100.00;102860.09;4974613;28;20043;-43
2023/05/03 02:02:47;;;;;;;12.82;8.57;;;;;;;3.16;100.00;102776.38;4975809;28;20039;-43
2023/05/03 02:05:12;;;;;;;12.13;8.77;;;;;;;3.20;100.00;102790.34;4958333;28;20030;-43
2023/05/03 02:07:38;;;;;;;12.75;8.38;;;;;;;3.04;100.00;102767.31;4975345;28;20042;-42
2023/05/03 02:10:05;;;;;;;10.25;8.07;;;;;;;2.99;100.00;102745.50;4990705;28;20039;-43
2023/05/03 02:12:30;;;;;;;10.00;8.07;;;;;;;3.46;100.00;102841.44;4989524;28;20058;-43
2023/05/03 02:14:55;;;;;;;10.70;8.45;;;;;;;3.40;100.00;102839.53;4975573;28;20362;-41
2023/05/03 02:17:20;;;;;;;9.50;7.90;;;;;;;3.33;100.00;102840.19;4974090;28;20141;-43
2023/05/03 02:19:46;;;;;;;10.48;7.70;;;;;;;3.40;100.00;102856.88;4975394;28;20042;-42
2023/05/03 02:22:11;;;;;;;10.13;8.48;;;;;;;3.14;100.00;102818.81;4974877;28;20035;-42
2023/05/03 02:24:38;;;;;;;11.10;7.60;;;;;;;3.38;100.00;102862.06;4975346;28;20038;-43
2023/05/03 02:27:04;;;;;;;13.90;7.55;;;;;;;3.37;100.00;102864.59;4974187;28;20039;-43
2023/05/03 02:29:30;;;;;;;11.68;6.68;;;;;;;3.36;100.00;102865.41;4975351;28;20173;-42
2023/05/03 02:31:56;;;;;;;7.38;6.38;;;;;;;3.31;100.00;102861.81;4975117;28;20490;-42
2023/05/03 02:34:21;;;;;;;12.23;7.05;;;;;;;2.91;100.00;102802.53;4990037;28;20039;-41
2023/05/03 02:36:46;;;;;;;7.38;6.63;;;;;;;3.23;100.00;102863.31;4974882;28;20125;-42
2023/05/03 02:39:12;;;;;;;7.53;6.32;;;;;;;3.18;100.00;102877.91;4974954;28;20035;-42
2023/05/03 02:41:37;;;;;;;15.35;7.03;;;;;;;3.17;100.00;102865.72;4975025;28;20039;-42
2023/05/03 02:44:02;;;;;;;8.95;6.63;;;;;;;3.22;100.00;102880.63;4974162;28;20047;-42
2023/05/03 02:46:28;;;;;;;8.80;5.60;;;;;;;2.78;100.00;102818.56;4975084;28;20086;-41
2023/05/03 02:48:53;;;;;;;7.57;6.13;;;;;;;3.18;100.00;102896.13;4975074;28;20069;-42
2023/05/03 02:51:19;;;;;;;11.15;6.45;;;;;;;2.79;100.00;102825.53;4973498;28;20455;-42
2023/05/03 02:53:44;;;;;;;9.82;6.47;;;;;;;3.12;100.00;102875.13;4974809;28;20031;-42
2023/05/03 02:56:10;;;;;;;8.98;5.68;;;;;;;3.07;100.00;102881.88;4974315;28;20045;-42
2023/05/03 02:58:35;;;;;;;9.48;5.63;;;;;;;2.98;100.00;102871.22;4975220;28;20038;-41
2023/05/03 03:01:00;;;;;;;7.45;5.15;;;;;;;2.62;100.00;102809.44;4972496;28;20490;-42
2023/05/03 03:03:26;;;;;;;8.45;5.38;;;;;;;2.70;100.00;102833.94;4974405;28;20536;-42
2023/05/03 03:05:51;;;;;;;8.20;5.10;;;;;;;3.02;100.00;102889.56;4973290;28;20089;-42
2023/05/03 03:08:17;;;;;;;11.60;6.22;;;;;;;2.97;100.00;102885.94;4974649;28;20117;-42
2023/05/03 03:10:42;;;;;;;13.38;5.80;;;;;;;2.93;100.00;102880.59;4972831;28;20031;-43
2023/05/03 03:13:07;;;;;;;8.25;5.85;;;;;;;2.61;100.00;102828.47;4972978;28;20051;-43
2023/05/03 03:15:32;;;;;;;7.53;5.22;;;;;;;3.01;100.00;102911.19;4972336;28;20158;-42
2023/05/03 03:17:58;;;;;;;11.05;6.05;;;;;;;3.00;100.00;102908.56;4974311;28;20109;-42
2023/05/03 03:20:23;;;;;;;8.85;5.32;;;;;;;3.00;100.00;102935.47;4972794;28;20121;-42
2023/05/03 03:22:49;;;;;;;10.90;6.15;;;;;;;3.01;100.00;102907.72;4974560;28;20031;-43
2023/05/03 03:25:14;;;;;;;7.93;5.60;;;;;;;2.66;100.00;102841.59;4973041;28;20027;-43
2023/05/03 03:27:40;;;;;;;7.90;5.40;;;;;;;2.97;100.00;102890.25;4974020;28;20053;-42
2023/05/03 03:30:07;;;;;;;9.05;5.43;;;;;;;2.58;100.00;102828.34;4974156;28;20074;-43
2023/05/03 03:32:32;;;;;;;13.48;6.00;;;;;;;2.95;100.00;102882.38;4971290;28;20031;-43
2023/05/03 03:34:58;;;;;;;8.25;5.55;;;;;;;2.51;100.00;102812.53;4972595;28;20094;-43
2023/05/03 03:37:23;;;;;;;8.13;5.57;;;;;;;2.45;100.00;102805.38;4973567;28;20134;-42
2023/05/03 03:39:48;;;;;;;10.45;5.95;;;;;;;2.91;100.00;102896.16;4972523;28;20039;-45
2023/05/03 03:42:14;;;;;;;10.07;5.10;;;;;;;2.49;100.00;102822.88;4973779;28;20049;-43
2023/05/03 03:44:39;;;;;;;8.90;5.05;;;;;;;2.90;100.00;102904.78;4972814;28;20065;-43
2023/05/03 03:47:05;;;;;;;10.88;5.30;;;;;;;2.93;100.00;102906.59;4972281;28;20042;-43
2023/05/03 03:49:30;;;;;;;12.23;5.20;;;;;;;2.87;100.00;102894.28;4973048;28;20122;-43
2023/05/03 03:51:56;;;;;;;8.43;5.40;;;;;;;2.88;100.00;102913.38;4974030;28;20042;-43
2023/05/03 03:54:21;;;;;;;8.77;5.00;;;;;;;2.82;100.00;102901.06;4988689;28;20034;-45
2023/05/03 03:56:46;;;;;;;6.93;4.97;;;;;;;1.74;100.00;102750.22;4973573;28;20054;-43
2023/05/03 03:59:12;;;;;;;17.13;4.95;;;;;;;2.83;100.00;102924.50;4972590;28;20089;-42
2023/05/03 04:01:37;;;;;;;9.50;5.05;;;;;;;2.79;100.00;102911.38;4973704;28;20089;-43
2023/05/03 04:04:03;;;;;;;7.95;4.82;;;;;;;2.78;100.00;102922.59;4973744;28;20045;-42
2023/05/03 04:06:28;;;;;;;8.75;5.03;;;;;;;2.77;100.00;102926.06;4972793;28;20085;-43
2023/05/03 04:08:54;;;;;;;8.75;5.47;;;;;;;2.31;100.00;102853.44;4973541;28;20041;-42
2023/05/03 04:11:20;;;;;;;12.27;5.15;;;;;;;2.33;100.00;102856.13;4971954;28;20038;-42
2023/05/03 04:13:45;;;;;;;8.27;5.18;;;;;;;2.42;100.00;102877.22;4973052;28;20167;-42
2023/05/03 04:16:11;;;;;;;7.68;5.78;;;;;;;2.65;100.00;102923.94;4988153;28;20477;-42
2023/05/03 04:18:36;;;;;;;5.82;5.05;;;;;;;2.23;100.00;102840.22;4973270;28;20050;-42
2023/05/03 04:21:01;;;;;;;10.88;4.97;;;;;;;2.69;100.00;102917.09;4972540;28;20039;-42
2023/05/03 04:23:27;;;;;;;8.00;5.35;;;;;;;2.63;100.00;102904.78;4972073;28;20070;-43
2023/05/03 04:25:52;;;;;;;10.50;5.32;;;;;;;2.47;100.00;102871.31;4973136;28;20113;-42
2023/05/03 04:28:18;;;;;;;10.43;6.10;;;;;;;2.35;100.00;102836.25;4972257;28;20517;-43
2023/05/03 04:30:45;;;;;;;7.75;5.57;;;;;;;2.36;100.00;102844.09;4973176;28;20114;-42
2023/05/03 04:33:11;;;;;;;10.02;6.68;;;;;;;2.82;100.00;102912.34;4973258;28;20121;-42
2023/05/03 04:35:36;;;;;;;12.45;6.03;;;;;;;2.73;100.00;102909.47;4973395;28;20130;-42
2023/05/03 04:38:02;;;;;;;7.18;5.97;;;;;;;2.83;100.00;102921.03;4973286;28;20495;-42
2023/05/03 04:40:28;;;;;;;8.70;6.00;;;;;;;2.46;100.00;102866.06;4970904;28;20043;-42
2023/05/03 04:42:53;;;;;;;8.13;6.18;;;;;;;2.83;100.00;102921.03;4973622;28;20027;-42
2023/05/03 04:45:19;;;;;;;9.38;5.95;;;;;;;2.84;100.00;102912.38;4975713;28;20039;-43
2023/05/03 04:47:45;;;;;;;9.73;6.50;;;;;;;2.43;100.00;102847.75;4976986;28;20046;-42
2023/05/03 04:50:11;;;;;;;11.32;6.28;;;;;;;2.45;100.00;102848.72;4977021;28;20062;-42
2023/05/03 04:52:36;;;;;;;11.18;6.35;;;;;;;2.88;100.00;102916.88;4976815;28;20046;-42
2023/05/03 04:55:02;;;;;;;11.32;6.78;;;;;;;2.87;100.00;102912.50;4959516;28;20042;-42
2023/05/03 04:57:29;;;;;;;10.68;6.13;;;;;;;2.96;100.00;102932.72;4990939;28;20077;-42
2023/05/03 04:59:54;;;;;;;10.07;5.80;;;;;;;2.95;100.00;102898.00;4976713;28;20474;-42
2023/05/03 05:02:20;;;;;;;10.18;5.47;;;;;;;3.00;100.00;102904.25;4976865;28;20035;-42
2023/05/03 05:04:45;;;;;;;11.02;5.97;;;;;;;2.69;100.00;102833.88;4976620;28;20031;-42
2023/05/03 05:07:11;;;;;;;7.05;5.03;;;;;;;3.23;100.00;102908.44;4976614;28;20039;-43
2023/05/03 05:09:37;;;;;;;8.73;5.90;;;;;;;3.25;100.00;102917.16;4975147;28;20085;-43
2023/05/03 05:12:02;;;;;;;8.48;5.43;;;;;;;3.04;100.00;102850.56;4975818;28;20062;-43
2023/05/03 05:14:30;;;;;;;13.80;5.63;;;;;;;3.21;100.00;102865.00;4976451;28;20141;-43
2023/05/03 05:16:55;;;;;;;7.75;4.90;;;;;;;3.64;100.00;102927.91;4975301;28;20470;-42
2023/05/03 05:19:20;;;;;;;7.65;4.45;;;;;;;3.37;100.00;102856.78;4976894;28;20078;-42
2023/05/03 05:21:46;;;;;;;6.97;4.85;;;;;;;3.47;100.00;102851.03;4976233;28;20422;-42
2023/05/03 05:24:12;;;;;;;6.65;4.72;;;;;;;3.99;100.00;102936.72;4976486;28;20149;-42
2023/05/03 05:26:37;;;;;;;5.15;3.80;;;;;;;4.10;100.00;102937.00;4975096;28;20118;-42
2023/05/03 05:29:02;;;;;;;7.88;3.90;;;;;;;3.88;100.00;102879.06;4976318;28;20038;-42
2023/05/03 05:31:28;;;;;;;8.32;3.75;;;;;;;4.34;100.00;102932.44;4975483;28;20053;-42
2023/05/03 05:33:53;;;;;;;8.15;3.80;;;;;;;4.51;100.00;102944.19;4958927;28;20054;-42
2023/05/03 05:36:19;;;;;;;8.57;3.45;;;;;;;4.56;100.00;102926.91;4974692;28;20046;-44
2023/05/03 05:38:44;;;;;;;4.22;3.08;;;;;;;4.68;100.00;102922.00;4975936;28;20479;-43
2023/05/03 05:41:10;;;;;;;6.15;3.25;;;;;;;4.97;100.00;102947.09;4976219;28;20043;-43
2023/05/03 05:43:36;;;;;;;5.35;2.75;;;;;;;5.03;100.00;102934.19;4976067;28;20037;-42
2023/05/03 05:46:01;;;;;;;5.60;2.88;;;;;;;5.29;100.00;102947.84;4975152;28;22589;-43
2023/05/03 05:48:26;;;;;;;3.70;2.63;;;;;;;5.36;100.00;102941.03;4975981;28;20035;-43
2023/05/03 05:50:52;;;;;;;4.32;2.55;;;;;;;5.59;100.00;102950.25;4975907;28;20038;-43
2023/05/03 05:53:17;;;;;;;7.05;2.80;;;;;;;5.74;100.00;102954.91;4975768;28;20442;-43
2023/05/03 05:55:42;;;;;;;6.38;2.90;;;;;;;5.81;100.00;102944.59;4975078;28;20035;-43
2023/05/03 05:58:08;;;;;;;3.20;2.53;;;;;;;5.88;100.00;102936.09;4975839;28;20045;-41
2023/05/03 06:00:34;;;;;;;6.38;2.75;;;;;;;6.16;100.00;102961.91;4975692;28;20039;-43
2023/05/03 06:03:00;;;;;;;10.20;3.13;;;;;;;6.15;100.00;102940.97;4974618;28;20058;-42
2023/05/03 06:05:25;;;;;;;5.72;2.58;;;;;;;6.41;100.00;102963.28;4970063;28;20049;-43
2023/05/03 06:07:50;;;;;;;12.52;3.53;;;;;;;6.54;100.00;102966.97;4956164;28;20041;-43
2023/05/03 06:10:16;;;;;;;8.00;2.53;;;;;;;6.34;100.00;102910.81;4956309;28;20035;-42
2023/05/03 06:12:41;;;;;;;7.50;2.20;;;;;;;6.50;100.00;102908.50;4954638;29;20051;-43
2023/05/03 06:15:07;;;;;;;4.35;2.25;;;;;;;6.95;100.00;102978.16;4970932;28;20061;-43
2023/05/03 06:17:33;;;;;;;4.78;2.22;;;;;;;6.99;100.00;102975.63;4956292;28;20097;-43
2023/05/03 06:19:58;;;;;;;7.10;2.13;;;;;;;7.09;100.00;102960.94;4964874;28;20127;-43
2023/05/03 06:22:24;;;;;;;6.00;2.13;;;;;;;7.24;100.00;102976.88;4975158;28;20129;-42
2023/05/03 06:24:50;;;;;;;6.75;2.33;;;;;;;7.03;100.00;102921.56;4975191;28;20117;-43
2023/05/03 06:27:15;;;;;;;5.78;2.60;;;;;;;7.50;100.00;102991.22;4975192;28;20051;-43
2023/05/03 06:29:43;;;;;;;5.95;2.15;;;;;;;7.18;100.00;102924.44;4975399;28;20026;-43
2023/05/03 06:32:08;;;;;;;5.18;2.03;;;;;;;7.65;100.00;102986.22;4974132;28;20038;-43
2023/05/03 06:34:33;;;;;;;10.07;2.05;;;;;;;7.41;100.00;102912.53;4975252;28;20035;-43
2023/05/03 06:36:59;;;;;;;4.50;2.00;;;;;;;7.92;100.00;102976.09;4973754;28;20042;-42
2023/05/03 06:39:24;;;;;;;4.00;2.00;;;;;;;8.01;100.00;102963.94;4974857;28;20054;-42
2023/05/03 06:41:50;;;;;;;5.65;2.30;;;;;;;7.87;100.00;102927.97;4975216;28;20039;-44
2023/05/03 06:44:15;;;;;;;4.82;1.70;;;;;;;8.18;100.00;102968.53;4973708;28;20434;-43
2023/05/03 06:46:40;;;;;;;6.13;1.90;;;;;;;8.10;100.00;102964.06;4989776;28;20410;-42
2023/05/03 06:49:07;;;;;;;3.97;1.95;;;;;;;8.15;100.00;102957.13;4974853;28;20485;-43
2023/05/03 06:51:32;;;;;;;4.03;1.90;;;;;;;7.90;100.00;102914.00;4974843;28;20035;-42
2023/05/03 06:54:00;;;;;;;4.18;1.80;;;;;;;8.34;100.00;102961.75;4973823;28;20039;-44
2023/05/03 06:56:26;;;;;;;3.50;1.88;;;;;;;8.59;100.00;102963.75;4973618;28;20042;-43
2023/05/03 06:58:52;;;;;;;7.43;1.70;;;;;;;8.75;100.00;102939.41;4974833;28;20039;-43
2023/05/03 07:01:19;;;;;;;3.03;1.27;;;;;;;8.80;100.00;102949.94;4973311;28;20115;-42
2023/05/03 07:03:47;;;;;;;4.35;1.30;;;;;;;9.02;100.00;102954.47;4974835;28;20035;-43
2023/05/03 07:06:12;;;;;;;6.35;1.45;;;;;;;9.10;100.00;102936.16;4974163;28;20125;-41
2023/05/03 07:08:38;;;;;;;5.93;1.75;;;;;;;9.29;100.00;102959.03;4974503;28;20215;-43
2023/05/03 07:11:03;;;;;;;2.97;1.27;;;;;;;9.43;100.00;102945.13;4959234;28;20059;-43
2023/05/03 07:13:29;;;;;;;3.40;1.15;;;;;;;9.71;100.00;102948.78;4953205;28;20059;-42
2023/05/03 07:15:55;;;;;;;4.28;1.30;;;;;;;9.99;100.00;102939.22;4954798;28;20051;-43
2023/05/03 07:18:20;;;;;;;2.97;1.02;;;;;;;10.47;100.00;102941.16;4955081;28;20063;-43
2023/05/03 07:20:45;;;;;;;2.70;1.20;;;;;;;10.69;100.00;102954.34;4954702;29;20033;-44
2023/05/03 07:23:11;;;;;;;3.22;1.20;;;;;;;11.21;100.00;102933.22;4953935;29;20038;-43
2023/05/03 07:25:38;;;;;;;3.15;1.10;;;;;;;11.36;100.00;102898.91;4955405;29;20035;-43
2023/05/03 07:28:03;;;;;;;2.03;0.90;;;;;;;11.61;100.00;102879.50;4963407;28;20049;-44
2023/05/03 07:30:29;;;;;;;2.10;1.30;;;;;;;11.20;100.00;102741.69;4972605;28;20038;-44
2023/05/03 07:32:54;;;;;;;4.50;1.20;;;;;;;12.62;100.00;102959.00;4974074;28;20076;-44
2023/05/03 07:35:19;;;;;;;4.28;1.13;;;;;;;12.69;100.00;102900.81;4973956;28;20046;-44
2023/05/03 07:37:45;;;;;;;3.90;1.50;;;;;;;12.60;100.00;102900.03;4972948;28;20113;-45
2023/05/03 07:40:11;;;;;;;3.55;1.30;;;;;;;12.80;100.00;102882.22;4972675;28;20094;-43
2023/05/03 07:42:36;;;;;;;4.28;1.38;;;;;;;13.47;100.00;102945.91;4974033;28;20522;-45
2023/05/03 07:45:02;;;;;;;4.72;1.33;;;;;;;13.85;100.00;102933.09;4973141;28;20105;-45
2023/05/03 07:47:27;;;;;;;3.47;1.40;;;;;;;14.09;100.00;102938.09;4974003;28;20410;-44
2023/05/03 07:49:53;;;;;;;2.90;1.23;;;;;;;14.48;100.00;102941.94;4988421;28;20039;-44
2023/05/03 07:52:18;;;;;;;3.17;1.25;;;;;;;14.35;100.00;102929.78;4972544;28;20037;-43
2023/05/03 07:54:44;;;;;;;3.28;1.30;;;;;;;14.62;100.00;102947.91;4989071;28;20046;-45
2023/05/03 07:57:12;;;;;;;2.75;1.10;;;;;;;14.55;100.00;102890.59;4972504;28;20509;-44
2023/05/03 07:59:37;;;;;;;6.03;1.40;;;;;;;15.15;100.00;102940.81;4973409;28;20502;-45
2023/05/03 08:02:03;;;;;;;4.22;1.95;;;;;;;14.84;100.00;102887.47;4972740;28;20121;-44
2023/05/03 08:04:28;;;;;;;4.95;1.55;;;;;;;15.26;100.00;102935.34;4973658;28;20043;-46
2023/05/03 08:06:53;;;;;;;4.57;1.13;;;;;;;15.33;100.00;102928.97;4973778;28;20031;-44
2023/05/03 08:09:19;;;;;;;6.28;2.42;;;;;;;15.20;100.00;102889.44;4988258;28;20375;-44
2023/05/03 08:11:45;;;;;;;3.05;1.27;;;;;;;15.39;100.00;102924.44;4972537;28;20039;-43
2023/05/03 08:14:11;;;;;;;4.57;1.40;;;;;;;15.44;100.00;102937.63;4973329;28;20053;-43
2023/05/03 08:16:36;;;;;;;2.97;0.88;;;;;;;15.50;100.00;102937.56;4973401;28;20065;-44
2023/05/03 08:19:01;;;;;;;3.50;1.35;;;;;;;15.83;99.05;102947.47;4971664;28;20478;-44
2023/05/03 08:21:32;;;;;;;3.97;0.93;;;;;;;15.74;100.00;102951.19;4972729;28;20142;-45
2023/05/03 08:23:57;;;;;;;2.60;1.30;;;;;;;15.91;100.00;102920.75;4973220;28;20047;-43
2023/05/03 08:26:23;;;;;;;2.08;0.95;;;;;;;16.41;99.39;102927.56;4972092;28;20042;-44
2023/05/03 08:28:48;;;;;;;3.50;1.25;;;;;;;16.46;100.00;102931.88;4973242;28;20039;-44
2023/05/03 08:31:14;;;;;;;2.60;1.10;;;;;;;16.44;100.00;102943.44;4973331;28;20162;-43
2023/05/03 08:33:39;;;;;;;1.77;0.80;;;;;;;16.62;97.28;102940.41;4972975;28;20034;-46
2023/05/03 08:36:05;;;;;;;2.97;1.00;;;;;;;16.70;99.18;102957.91;4972602;28;20055;-45
2023/05/03 08:38:32;;;;;;;3.58;1.23;;;;;;;16.67;97.27;102903.94;4973292;28;20038;-46
2023/05/03 08:41:02;;;;;;;4.18;1.73;;;;;;;16.55;99.04;102893.63;4972858;28;20142;-47
2023/05/03 08:43:28;;;;;;;2.45;1.30;;;;;;;17.10;92.38;102955.16;4968303;28;20041;-46
2023/05/03 08:45:54;;;;;;;5.93;1.17;;;;;;;17.23;96.67;102951.22;4969469;28;20085;-43
2023/05/03 08:48:19;;;;;;;3.80;1.48;;;;;;;16.84;91.44;102947.81;4971498;28;20047;-44
2023/05/03 08:50:45;;;;;;;3.88;1.20;;;;;;;17.08;89.20;102948.09;4952730;28;20390;-46
2023/05/03 08:53:10;;;;;;;5.90;1.35;;;;;;;17.30;98.03;102952.81;4953980;28;20049;-43
2023/05/03 08:55:36;;;;;;;3.33;1.40;;;;;;;17.08;97.00;102956.94;4952778;29;20039;-43
2023/05/03 08:58:09;;;;;;;4.65;1.70;;;;;;;16.09;95.76;102892.00;4953440;28;20039;-46
2023/05/03 09:00:34;;;;;;;2.05;1.20;;;;;;;16.87;100.00;102918.47;4957688;28;20039;-47
2023/05/03 09:03:00;;;;;;;4.95;1.60;;;;;;;16.89;93.20;102961.00;4974113;28;20371;-44
2023/05/03 09:05:29;;;;;;;4.25;1.77;;;;;;;16.71;100.00;102957.00;4965930;28;20043;-44
2023/05/03 09:08:08;;;;;;;3.50;1.13;;;;;;;16.75;98.26;102952.50;4959952;28;20529;-45
2023/05/03 09:10:39;;;;;;;4.13;1.65;;;;;;;16.16;96.41;102956.50;4970437;28;20034;-46
2023/05/03 09:13:06;;;;;;;4.50;1.50;;;;;;;16.06;100.00;102953.19;4971427;28;20043;-45
2023/05/03 09:15:31;;;;;;;2.50;1.52;;;;;;;16.30;97.18;102957.06;4965885;28;20372;-42
2023/05/03 09:18:11;;;;;;;4.03;1.30;;;;;;;16.61;100.00;102881.03;4966288;28;20130;-44
2023/05/03 09:20:38;;;;;;;5.32;1.75;;;;;;;16.69;100.00;102880.84;4972922;28;20493;-48
2023/05/03 09:23:05;;;;;;;4.57;1.77;;;;;;;17.29;100.00;102943.09;4987253;28;20454;-49
2023/05/03 09:25:44;;;;;;;4.20;1.50;;;;;;;17.19;98.45;102891.00;4969779;28;20043;-46
2023/05/03 09:28:14;;;;;;;3.10;1.30;;;;;;;17.83;95.27;102922.03;4970510;28;20042;-43
2023/05/03 09:30:40;;;;;;;3.70;1.38;;;;;;;18.16;89.40;102929.91;4971882;28;20082;-41
2023/05/03 09:33:06;;;;;;;3.13;1.75;;;;;;;18.44;92.02;102939.69;4973943;28;20038;-42
2023/05/03 09:35:32;;;;;;;7.10;1.70;;;;;;;17.56;90.71;102932.63;4973635;28;20039;-45
2023/05/03 09:37:58;;;;;;;4.78;1.60;;;;;;;17.43;96.83;102916.06;4975790;28;20406;-41
2023/05/03 09:40:25;;;;;;;3.63;1.70;;;;;;;18.05;94.61;102882.28;4975523;28;20042;-42
2023/05/03 09:43:10;;;;;;;3.53;1.45;;;;;;;18.74;92.84;102900.47;4975943;28;20375;-45
2023/05/03 09:45:36;;;;;;;3.60;1.52;;;;;;;17.66;83.93;102928.78;4958518;28;20035;-44
2023/05/03 09:48:03;;;;;;;4.50;1.83;;;;;;;17.34;91.81;102945.59;4974464;28;20035;-42
2023/05/03 09:50:31;;;;;;;3.55;1.50;;;;;;;16.82;98.63;102890.25;4974749;28;20039;-45
2023/05/03 09:53:02;;;;;;;4.97;1.70;;;;;;;17.30;99.08;102896.06;4973639;28;20027;-42
2023/05/03 09:55:31;;;;;;;3.40;1.52;;;;;;;17.67;95.22;102928.72;4973448;28;20058;-41
2023/05/03 09:57:57;;;;;;;3.33;1.50;;;;;;;16.76;98.48;102931.16;4974728;28;20023;-43
2023/05/03 10:00:24;;;;;;;3.17;1.60;;;;;;;16.37;94.83;102934.78;4974667;28;20039;-44
2023/05/03 10:02:50;;;;;;;4.47;1.90;;;;;;;16.25;99.16;102941.25;4975602;28;20038;-42
2023/05/03 10:05:17;;;;;;;4.10;1.83;;;;;;;16.78;100.00;102925.84;4973440;28;20062;-44
2023/05/03 10:07:43;;;;;;;5.63;1.80;;;;;;;17.06;100.00;102878.09;4974815;28;20035;-44
2023/05/03 10:10:09;;;;;;;3.47;1.58;;;;;;;18.42;100.00;102920.19;4975415;28;20550;-43
2023/05/03 10:12:35;;;;;;;3.15;1.73;;;;;;;18.73;89.10;102929.91;4974254;28;20138;-43
2023/05/03 10:15:02;;;;;;;2.47;1.48;;;;;;;19.28;93.23;102923.53;4958129;28;20071;-42
2023/05/03 10:17:32;;;;;;;2.72;1.67;;;;;;;19.49;92.37;102929.00;4974512;28;20038;-42
2023/05/03 10:20:16;;;;;;;3.05;1.75;;;;;;;19.30;79.99;102932.34;4975458;28;20049;-45
2023/05/03 10:23:04;;;;;;;4.20;1.73;;;;;;;19.23;76.54;102920.16;4974525;28;20486;-42
2023/05/03 10:25:30;;;;;;;3.20;1.63;;;;;;;19.21;81.15;102925.53;4975172;28;20121;-42
2023/05/03 10:28:03;;;;;;;4.50;1.40;;;;;;;19.16;88.96;102911.47;4975160;28;20039;-45
2023/05/03 10:30:29;;;;;;;7.00;1.92;;;;;;;18.80;79.37;102918.94;4973899;28;20037;-46
2023/05/03 10:32:55;;;;;;;2.47;1.63;;;;;;;18.70;82.16;102879.31;4975414;28;20041;-41
2023/05/03 10:35:25;;;;;;;5.95;2.70;;;;;;;18.64;78.56;102919.53;4973851;28;20030;-43
2023/05/03 10:37:50;;;;;;;5.30;1.90;;;;;;;19.32;89.84;102922.50;4974204;28;20512;-42
2023/05/03 10:40:17;;;;;;;3.88;1.90;;;;;;;18.36;75.32;102845.72;4975399;28;20038;-45
2023/05/03 10:43:27;;;;;;;2.92;1.80;;;;;;;18.46;82.86;102902.28;4974470;28;20373;-44
2023/05/03 10:45:55;;;;;;;4.88;2.00;;;;;;;18.87;79.30;102887.59;4959547;28;20487;-44
2023/05/03 10:48:21;;;;;;;6.57;2.08;;;;;;;19.31;89.91;102902.94;4967339;28;20502;-44
2023/05/03 10:50:47;;;;;;;3.65;2.05;;;;;;;19.59;83.65;102852.91;4969992;28;20030;-44
2023/05/03 10:53:39;;;;;;;7.97;2.40;;;;;;;19.82;76.96;102913.50;4972957;28;20049;-46
2023/05/03 10:56:07;;;;;;;4.53;2.58;;;;;;;19.69;76.86;102850.78;4989721;28;20549;-43
2023/05/03 10:58:46;;;;;;;4.82;2.00;;;;;;;20.77;75.67;102892.72;4973569;28;20027;-43
2023/05/03 11:01:15;;;;;;;3.42;2.17;;;;;;;19.74;75.56;102712.50;4974490;28;20027;-44
2023/05/03 11:03:41;;;;;;;5.00;2.25;;;;;;;20.67;71.05;102908.28;4974437;28;20169;-45
2023/05/03 11:06:06;;;;;;;5.18;2.25;;;;;;;19.86;68.93;102892.88;4974719;28;20113;-44
2023/05/03 11:08:36;;;;;;;4.10;1.90;;;;;;;20.01;83.33;102893.16;4973129;28;20034;-42
2023/05/03 11:11:06;;;;;;;2.47;2.08;;;;;;;21.53;71.01;102884.00;4973374;28;20041;-41
2023/05/03 11:13:31;;;;;;;4.78;2.10;;;;;;;21.09;59.38;102860.09;4972986;28;20414;-41
2023/05/03 11:15:57;;;;;;;4.30;2.10;;;;;;;20.74;64.40;102891.06;4974773;28;20035;-43
2023/05/03 11:18:25;;;;;;;5.72;2.53;;;;;;;19.57;66.09;102870.81;4972533;28;20035;-42
2023/05/03 11:20:52;;;;;;;5.40;2.47;;;;;;;19.36;70.49;102889.41;4974279;28;20118;-45